• Join FlightAware (Why Join?)
  • Login
  • US Flag 
06:48PM EDT


 

Airport Tracker/Info


-or-


 

Live Flight TrackerFlight Track Log ✈ KAP46 ✈ 21-Jun-2013 ✈ KMSS - KALB

Flight Track Log - Related Links

Times and Time Zones

All times are in EDT time to prevent confusion due to time zone crossing. See the KAP46 flight status page for this flight to view local times or setup timezone preferences in your user account.

Time Position Orientation Groundspeed Altitude Reporting Facility
EDT Latitude Longitude Course Direction KTS MPH feet Rate Location/Type
01:15PM 44.5728 -74.6869 167° South 151 174 5,500  Level Boston Center
01:16PM 44.5275 -74.6589 156° South 164 189 5,800 420 Climbing Boston Center
01:17PM 44.4861 -74.6400 162° South 164 189 6,400 600 Climbing Boston Center
01:18PM 44.4489 -74.6211 160° South 154 177 7,000 540 Climbing Boston Center
01:19PM 44.4097 -74.6022 161° South 149 171 7,500 300 Climbing Boston Center
01:20PM 44.3664 -74.5775 158° South 149 171 7,600  Climbing Boston Center
01:21PM 44.7867 -74.7622 167° South  Level FlightAware Approximate
01:21PM 44.3189 -74.5553 161° South 167 192 7,500  Level Boston Center
01:22PM 44.2758 -74.5278 155° Southeast 175 201 7,500  Level Boston Center
01:23PM 44.2261 -74.5058 162° South 180 207 7,500  Level Boston Center
01:24PM 44.1786 -74.4867 164° South 180 207 7,500  Level Boston Center
01:25PM 44.1350 -74.4678 163° South 180 207 7,500  Level Boston Center
01:26PM 44.0875 -74.4517 166° South 180 207 7,600  Climbing Boston Center
01:27PM 44.0442 -74.4300 160° South 180 207 7,500 -60 Descending Boston Center
01:28PM 43.9986 -74.4056 159° South 180 207 7,500  Level Boston Center
01:29PM 43.9553 -74.3839 160° South 180 207 7,500  Level Boston Center
01:30PM 43.9075 -74.3650 164° South 175 201 7,600 240 Climbing Boston Center
01:31PM 43.8661 -74.3636 179° South 169 194 8,000 -60 Climbing Boston Center
01:32PM 43.8203 -74.3478 166° South 169 194 7,500 -480 Descending Boston Center
01:33PM 43.7708 -74.3175 156° South 176 203 7,100 -360 Descending Boston Center
01:34PM 43.7278 -74.2817 149° Southeast 181 208 6,800 -300 Descending Boston Center
01:35PM 43.6867 -74.2489 150° Southeast 176 203 6,600 -240 Descending Boston Center
01:36PM 43.6431 -74.2275 160° South 176 203 6,400 -240 Descending Boston Center
01:37PM 43.5956 -74.2061 162° South 170 196 6,200 -240 Descending Boston Center
01:38PM 43.5644 -74.1964 167° South 168 193 6,100 -240 Descending Boston Center
01:39PM 43.5044 -74.1633 158° South 170 196 5,800 -240 Descending Boston Center
01:40PM 43.4650 -74.1478 164° South 174 200 5,700 -120 Descending Boston Center
01:41PM 43.4236 -74.1267 160° South 172 198 5,600 -60 Descending Boston Center
01:42PM 43.3783 -74.1025 159° South 164 189 5,600  Level Boston Center
01:43PM 43.3347 -74.0842 163° South 169 194 5,600  Level Boston Center
01:44PM 43.2892 -74.0603 159° South 169 194 5,600  Level Boston Center
01:45PM 43.2478 -74.0450 165° South 162 186 5,600  Level Boston Center
01:46PM 43.1939 -74.0236 164° South 162 186 5,600  Level Boston Center
01:47PM 43.1628 -74.0114 164° South 163 188 5,600 -120 Level Boston Center
01:48PM 43.1089 -73.9928 166° South 165 190 5,400 -240 Descending Boston Center
01:49PM 43.0528 -73.9800 171° South 170 196 5,100 -300 Descending Boston Center
01:50PM 43.0092 -73.9706 171° South 185 213 4,800 -420 Descending Boston Center
01:51PM 42.9572 -73.9578 170° South 179 206 4,300 -420 Descending Boston Center
01:52PM 42.9094 -73.9453 169° South 185 213 4,000 -360 Descending Boston Center
01:53PM 42.8531 -73.9411 177° South 177 204 3,600 -240 Descending Boston Center
01:54PM 42.8219 -73.9403 179° South 166 191 3,600 -60 Level Boston Center
01:56PM 42.7636 -73.9389 179° South 159 183 3,500  Descending Boston Center
01:56PM 42.7261 -73.9436 185° South 160 184 3,600  Climbing Boston Center
01:58PM 42.6739 -73.9453 181° South 148 170 3,600  Level Boston Center
01:59PM 42.6342 -73.9442 179° South 139 160 3,600  Level Boston Center
02:00PM 42.6011 -73.9294 162° South 144 166 3,600  Level Boston Center
02:01PM 42.6039 -73.8758 86° East 137 158 3,600 -360 Level Boston Center
02:02PM 42.6108 -73.8167 81° East 162 186 2,900 -660 Descending Boston Center
02:02PM 42.6422 -73.8033 17° North 159 183 2,400 -720 Descending Boston Center
02:03PM 42.6756 -73.8042 359° North 126 145 1,700 -780 Descending Boston Center
02:04PM 42.7069 -73.8047 359° North 111 128 1,000 -720 Descending Boston Center
02:06PM 42.7333 -73.8000 44° Northeast  Level FlightAware Approximate
02:13PM 42.7491 -73.8020 44° Northeast  Level Estimated
02:14PM 42.7491 -73.8020 44° Northeast  Level Estimated
02:15PM 42.7491 -73.8020 44° Northeast  Level Estimated
02:16PM 42.7491 -73.8020 44° Northeast  Level Estimated